sensor_id;sensor_type;location;lat;lon;timestamp;P1;durP1;ratioP1;P2;durP2;ratioP2
14994;SDS011;7593;49.006;8.372;2024-01-10T00:01:59;9.17;;;6.57;;
14994;SDS011;7593;49.006;8.372;2024-01-10T00:04:26;10.23;;;6.70;;
14994;SDS011;7593;49.006;8.372;2024-01-10T00:06:53;9.30;;;6.30;;
14994;SDS011;7593;49.006;8.372;2024-01-10T00:09:21;9.90;;;6.60;;
14994;SDS011;7593;49.006;8.372;2024-01-10T00:11:47;8.93;;;6.43;;
14994;SDS011;7593;49.006;8.372;2024-01-10T00:14:14;8.40;;;5.70;;
14994;SDS011;7593;49.006;8.372;2024-01-10T00:16:41;9.37;;;6.67;;
14994;SDS011;7593;49.006;8.372;2024-01-10T00:19:08;8.53;;;6.30;;
14994;SDS011;7593;49.006;8.372;2024-01-10T00:21:35;14.33;;;6.90;;
14994;SDS011;7593;49.006;8.372;2024-01-10T00:24:02;9.13;;;6.67;;
14994;SDS011;7593;49.006;8.372;2024-01-10T00:26:30;12.00;;;6.77;;
14994;SDS011;7593;49.006;8.372;2024-01-10T00:28:57;9.37;;;6.70;;
14994;SDS011;7593;49.006;8.372;2024-01-10T00:31:24;10.83;;;6.53;;
14994;SDS011;7593;49.006;8.372;2024-01-10T00:33:51;12.63;;;6.73;;
14994;SDS011;7593;49.006;8.372;2024-01-10T00:36:17;9.47;;;6.80;;
14994;SDS011;7593;49.006;8.372;2024-01-10T00:38:44;8.93;;;5.93;;
14994;SDS011;7593;49.006;8.372;2024-01-10T00:41:11;11.43;;;7.00;;
14994;SDS011;7593;49.006;8.372;2024-01-10T00:43:39;9.60;;;6.40;;
14994;SDS011;7593;49.006;8.372;2024-01-10T00:46:06;9.57;;;6.80;;
14994;SDS011;7593;49.006;8.372;2024-01-10T00:48:32;9.07;;;6.20;;
14994;SDS011;7593;49.006;8.372;2024-01-10T00:50:59;9.90;;;6.60;;
14994;SDS011;7593;49.006;8.372;2024-01-10T00:53:26;8.87;;;6.53;;
14994;SDS011;7593;49.006;8.372;2024-01-10T00:55:53;11.83;;;6.73;;
14994;SDS011;7593;49.006;8.372;2024-01-10T00:58:19;10.20;;;6.80;;
14994;SDS011;7593;49.006;8.372;2024-01-10T01:00:48;9.93;;;6.57;;
14994;SDS011;7593;49.006;8.372;2024-01-10T01:03:14;10.70;;;7.23;;
14994;SDS011;7593;49.006;8.372;2024-01-10T01:05:41;11.57;;;6.37;;
14994;SDS011;7593;49.006;8.372;2024-01-10T01:08:08;10.20;;;6.37;;
14994;SDS011;7593;49.006;8.372;2024-01-10T01:10:34;12.00;;;6.77;;
14994;SDS011;7593;49.006;8.372;2024-01-10T01:13:01;9.50;;;6.50;;
14994;SDS011;7593;49.006;8.372;2024-01-10T01:15:28;13.43;;;7.10;;
14994;SDS011;7593;49.006;8.372;2024-01-10T01:17:56;9.67;;;6.60;;
14994;SDS011;7593;49.006;8.372;2024-01-10T01:20:23;10.33;;;6.67;;
14994;SDS011;7593;49.006;8.372;2024-01-10T01:22:50;13.10;;;6.83;;
14994;SDS011;7593;49.006;8.372;2024-01-10T01:25:17;9.20;;;6.90;;
14994;SDS011;7593;49.006;8.372;2024-01-10T01:27:44;10.13;;;7.10;;
14994;SDS011;7593;49.006;8.372;2024-01-10T01:30:11;10.70;;;7.23;;
14994;SDS011;7593;49.006;8.372;2024-01-10T01:32:38;10.13;;;6.63;;
14994;SDS011;7593;49.006;8.372;2024-01-10T01:35:06;9.20;;;6.50;;
14994;SDS011;7593;49.006;8.372;2024-01-10T01:37:32;9.43;;;6.40;;
14994;SDS011;7593;49.006;8.372;2024-01-10T01:39:59;9.47;;;7.20;;
14994;SDS011;7593;49.006;8.372;2024-01-10T01:42:26;10.90;;;7.20;;
14994;SDS011;7593;49.006;8.372;2024-01-10T01:44:52;10.07;;;6.77;;
14994;SDS011;7593;49.006;8.372;2024-01-10T01:47:19;10.00;;;6.60;;
14994;SDS011;7593;49.006;8.372;2024-01-10T01:49:46;9.70;;;7.30;;
14994;SDS011;7593;49.006;8.372;2024-01-10T01:52:15;11.27;;;7.13;;
14994;SDS011;7593;49.006;8.372;2024-01-10T01:54:42;10.57;;;7.07;;
14994;SDS011;7593;49.006;8.372;2024-01-10T01:57:08;12.20;;;7.10;;
14994;SDS011;7593;49.006;8.372;2024-01-10T01:59:35;10.47;;;7.20;;
14994;SDS011;7593;49.006;8.372;2024-01-10T02:02:03;12.10;;;7.63;;
14994;SDS011;7593;49.006;8.372;2024-01-10T02:04:31;10.97;;;7.20;;
14994;SDS011;7593;49.006;8.372;2024-01-10T02:06:58;10.93;;;7.33;;
14994;SDS011;7593;49.006;8.372;2024-01-10T02:09:27;10.70;;;7.63;;
14994;SDS011;7593;49.006;8.372;2024-01-10T02:11:54;10.60;;;7.27;;
14994;SDS011;7593;49.006;8.372;2024-01-10T02:14:21;10.43;;;6.83;;
14994;SDS011;7593;49.006;8.372;2024-01-10T02:16:48;10.87;;;7.27;;
14994;SDS011;7593;49.006;8.372;2024-01-10T02:19:19;10.67;;;7.20;;
14994;SDS011;7593;49.006;8.372;2024-01-10T02:21:46;12.00;;;7.33;;
14994;SDS011;7593;49.006;8.372;2024-01-10T02:24:13;11.73;;;7.70;;
14994;SDS011;7593;49.006;8.372;2024-01-10T02:26:42;10.90;;;7.20;;
14994;SDS011;7593;49.006;8.372;2024-01-10T02:29:09;11.43;;;7.23;;
14994;SDS011;7593;49.006;8.372;2024-01-10T02:31:35;10.63;;;7.07;;
14994;SDS011;7593;49.006;8.372;2024-01-10T02:34:02;12.47;;;7.60;;
14994;SDS011;7593;49.006;8.372;2024-01-10T02:36:29;11.03;;;7.73;;
14994;SDS011;7593;49.006;8.372;2024-01-10T02:38:55;15.63;;;8.23;;
14994;SDS011;7593;49.006;8.372;2024-01-10T02:41:22;11.73;;;7.57;;
14994;SDS011;7593;49.006;8.372;2024-01-10T02:43:50;13.60;;;8.03;;
14994;SDS011;7593;49.006;8.372;2024-01-10T02:46:17;11.37;;;7.97;;
14994;SDS011;7593;49.006;8.372;2024-01-10T02:48:47;12.37;;;8.23;;
14994;SDS011;7593;49.006;8.372;2024-01-10T02:51:14;12.07;;;7.97;;
14994;SDS011;7593;49.006;8.372;2024-01-10T02:53:41;12.30;;;8.50;;
14994;SDS011;7593;49.006;8.372;2024-01-10T02:56:07;12.53;;;8.33;;
14994;SDS011;7593;49.006;8.372;2024-01-10T02:58:34;11.10;;;8.10;;
14994;SDS011;7593;49.006;8.372;2024-01-10T03:01:03;13.07;;;8.43;;
14994;SDS011;7593;49.006;8.372;2024-01-10T03:03:30;11.73;;;7.63;;
14994;SDS011;7593;49.006;8.372;2024-01-10T03:05:56;12.03;;;8.27;;
14994;SDS011;7593;49.006;8.372;2024-01-10T03:08:23;11.43;;;7.77;;
14994;SDS011;7593;49.006;8.372;2024-01-10T03:10:50;12.93;;;8.47;;
14994;SDS011;7593;49.006;8.372;2024-01-10T03:13:16;10.90;;;7.33;;
14994;SDS011;7593;49.006;8.372;2024-01-10T03:15:43;11.27;;;7.80;;
14994;SDS011;7593;49.006;8.372;2024-01-10T03:18:11;13.17;;;8.53;;
14994;SDS011;7593;49.006;8.372;2024-01-10T03:20:38;13.23;;;8.40;;
14994;SDS011;7593;49.006;8.372;2024-01-10T03:23:04;11.07;;;7.63;;
14994;SDS011;7593;49.006;8.372;2024-01-10T03:25:31;12.93;;;8.33;;
14994;SDS011;7593;49.006;8.372;2024-01-10T03:27:58;13.83;;;8.20;;
14994;SDS011;7593;49.006;8.372;2024-01-10T03:30:31;11.77;;;7.77;;
14994;SDS011;7593;49.006;8.372;2024-01-10T03:33:26;11.80;;;7.70;;
14994;SDS011;7593;49.006;8.372;2024-01-10T03:39:11;12.67;;;8.30;;
14994;SDS011;7593;49.006;8.372;2024-01-10T03:41:52;12.83;;;8.40;;
14994;SDS011;7593;49.006;8.372;2024-01-10T03:44:19;12.47;;;8.07;;
14994;SDS011;7593;49.006;8.372;2024-01-10T03:46:48;10.57;;;7.20;;
14994;SDS011;7593;49.006;8.372;2024-01-10T03:49:17;11.30;;;8.07;;
14994;SDS011;7593;49.006;8.372;2024-01-10T03:51:55;12.87;;;8.37;;
14994;SDS011;7593;49.006;8.372;2024-01-10T03:54:23;13.80;;;8.80;;
14994;SDS011;7593;49.006;8.372;2024-01-10T03:56:50;12.87;;;7.90;;
14994;SDS011;7593;49.006;8.372;2024-01-10T03:59:21;12.60;;;8.23;;
14994;SDS011;7593;49.006;8.372;2024-01-10T04:01:54;13.03;;;8.60;;
14994;SDS011;7593;49.006;8.372;2024-01-10T04:04:33;10.83;;;7.87;;
14994;SDS011;7593;49.006;8.372;2024-01-10T04:07:04;12.87;;;7.93;;
14994;SDS011;7593;49.006;8.372;2024-01-10T04:09:32;12.87;;;8.20;;
14994;SDS011;7593;49.006;8.372;2024-01-10T04:12:00;11.87;;;8.40;;
14994;SDS011;7593;49.006;8.372;2024-01-10T04:14:32;12.07;;;8.00;;
14994;SDS011;7593;49.006;8.372;2024-01-10T04:17:01;13.70;;;8.60;;
14994;SDS011;7593;49.006;8.372;2024-01-10T04:19:31;13.13;;;8.57;;
14994;SDS011;7593;49.006;8.372;2024-01-10T04:22:04;13.10;;;8.20;;
14994;SDS011;7593;49.006;8.372;2024-01-10T04:24:39;13.70;;;8.47;;
14994;SDS011;7593;49.006;8.372;2024-01-10T04:27:09;12.70;;;8.70;;
14994;SDS011;7593;49.006;8.372;2024-01-10T04:29:37;12.67;;;8.37;;
14994;SDS011;7593;49.006;8.372;2024-01-10T04:32:06;13.07;;;8.73;;
14994;SDS011;7593;49.006;8.372;2024-01-10T04:34:36;13.57;;;8.57;;
14994;SDS011;7593;49.006;8.372;2024-01-10T04:37:08;12.83;;;8.03;;
14994;SDS011;7593;49.006;8.372;2024-01-10T04:39:35;12.77;;;7.80;;
14994;SDS011;7593;49.006;8.372;2024-01-10T04:42:11;11.57;;;7.87;;
14994;SDS011;7593;49.006;8.372;2024-01-10T04:44:39;14.20;;;9.20;;
14994;SDS011;7593;49.006;8.372;2024-01-10T04:47:06;13.53;;;8.60;;
14994;SDS011;7593;49.006;8.372;2024-01-10T04:49:33;13.77;;;9.10;;
14994;SDS011;7593;49.006;8.372;2024-01-10T04:52:09;12.80;;;8.87;;
14994;SDS011;7593;49.006;8.372;2024-01-10T04:54:38;13.53;;;9.00;;
14994;SDS011;7593;49.006;8.372;2024-01-10T04:57:08;14.77;;;9.40;;
14994;SDS011;7593;49.006;8.372;2024-01-10T04:59:43;15.53;;;10.00;;
14994;SDS011;7593;49.006;8.372;2024-01-10T05:02:14;11.20;;;8.03;;
14994;SDS011;7593;49.006;8.372;2024-01-10T05:04:56;13.57;;;8.60;;
14994;SDS011;7593;49.006;8.372;2024-01-10T05:07:25;14.53;;;9.37;;
14994;SDS011;7593;49.006;8.372;2024-01-10T05:09:58;12.90;;;9.00;;
14994;SDS011;7593;49.006;8.372;2024-01-10T05:12:25;12.60;;;8.67;;
14994;SDS011;7593;49.006;8.372;2024-01-10T05:14:59;15.07;;;8.53;;
14994;SDS011;7593;49.006;8.372;2024-01-10T05:17:26;14.83;;;8.90;;
14994;SDS011;7593;49.006;8.372;2024-01-10T05:20:00;13.47;;;8.90;;
14994;SDS011;7593;49.006;8.372;2024-01-10T05:22:32;13.17;;;8.67;;
14994;SDS011;7593;49.006;8.372;2024-01-10T05:25:08;12.73;;;8.50;;
14994;SDS011;7593;49.006;8.372;2024-01-10T05:27:36;14.07;;;8.57;;
14994;SDS011;7593;49.006;8.372;2024-01-10T05:30:07;12.80;;;8.87;;
14994;SDS011;7593;49.006;8.372;2024-01-10T05:32:36;15.17;;;9.43;;
14994;SDS011;7593;49.006;8.372;2024-01-10T05:35:03;14.47;;;9.10;;
14994;SDS011;7593;49.006;8.372;2024-01-10T05:37:34;13.27;;;9.30;;
14994;SDS011;7593;49.006;8.372;2024-01-10T05:40:02;13.63;;;8.30;;
14994;SDS011;7593;49.006;8.372;2024-01-10T05:42:30;13.57;;;8.80;;
14994;SDS011;7593;49.006;8.372;2024-01-10T05:45:01;13.00;;;8.40;;
14994;SDS011;7593;49.006;8.372;2024-01-10T05:47:28;11.87;;;8.73;;
14994;SDS011;7593;49.006;8.372;2024-01-10T05:49:55;13.80;;;8.87;;
14994;SDS011;7593;49.006;8.372;2024-01-10T05:52:21;17.37;;;8.63;;
14994;SDS011;7593;49.006;8.372;2024-01-10T05:54:50;13.83;;;9.07;;
14994;SDS011;7593;49.006;8.372;2024-01-10T05:57:17;14.67;;;9.10;;
14994;SDS011;7593;49.006;8.372;2024-01-10T05:59:44;15.07;;;9.60;;
14994;SDS011;7593;49.006;8.372;2024-01-10T06:02:10;13.73;;;8.93;;
14994;SDS011;7593;49.006;8.372;2024-01-10T06:04:37;13.03;;;8.60;;
14994;SDS011;7593;49.006;8.372;2024-01-10T06:07:04;13.97;;;9.33;;
14994;SDS011;7593;49.006;8.372;2024-01-10T06:09:31;12.83;;;8.87;;
14994;SDS011;7593;49.006;8.372;2024-01-10T06:11:59;13.77;;;9.60;;
14994;SDS011;7593;49.006;8.372;2024-01-10T06:14:26;13.83;;;8.70;;
14994;SDS011;7593;49.006;8.372;2024-01-10T06:16:53;12.27;;;8.50;;
14994;SDS011;7593;49.006;8.372;2024-01-10T06:19:20;14.73;;;9.80;;
14994;SDS011;7593;49.006;8.372;2024-01-10T06:21:46;12.70;;;8.37;;
14994;SDS011;7593;49.006;8.372;2024-01-10T06:24:13;13.93;;;8.57;;
14994;SDS011;7593;49.006;8.372;2024-01-10T06:26:40;16.47;;;9.30;;
14994;SDS011;7593;49.006;8.372;2024-01-10T06:29:10;14.63;;;9.13;;
14994;SDS011;7593;49.006;8.372;2024-01-10T06:31:37;14.90;;;9.00;;
14994;SDS011;7593;49.006;8.372;2024-01-10T06:34:04;19.97;;;9.80;;
14994;SDS011;7593;49.006;8.372;2024-01-10T06:36:31;14.40;;;9.33;;
14994;SDS011;7593;49.006;8.372;2024-01-10T06:38:58;15.20;;;8.90;;
14994;SDS011;7593;49.006;8.372;2024-01-10T06:41:25;14.07;;;8.97;;
14994;SDS011;7593;49.006;8.372;2024-01-10T06:43:51;14.30;;;9.10;;
14994;SDS011;7593;49.006;8.372;2024-01-10T06:46:20;14.17;;;9.50;;
14994;SDS011;7593;49.006;8.372;2024-01-10T06:48:47;14.67;;;9.33;;
14994;SDS011;7593;49.006;8.372;2024-01-10T06:51:15;14.27;;;8.80;;
14994;SDS011;7593;49.006;8.372;2024-01-10T06:53:42;15.53;;;9.17;;
14994;SDS011;7593;49.006;8.372;2024-01-10T06:56:09;15.13;;;9.57;;
14994;SDS011;7593;49.006;8.372;2024-01-10T06:58:36;22.30;;;9.43;;
14994;SDS011;7593;49.006;8.372;2024-01-10T07:01:04;14.43;;;9.10;;
14994;SDS011;7593;49.006;8.372;2024-01-10T07:03:32;15.43;;;11.80;;
14994;SDS011;7593;49.006;8.372;2024-01-10T07:06:00;15.53;;;9.17;;
14994;SDS011;7593;49.006;8.372;2024-01-10T07:08:27;12.17;;;9.17;;
14994;SDS011;7593;49.006;8.372;2024-01-10T07:10:55;16.17;;;9.67;;
14994;SDS011;7593;49.006;8.372;2024-01-10T07:13:22;15.70;;;9.20;;
14994;SDS011;7593;49.006;8.372;2024-01-10T07:15:49;13.87;;;9.17;;
14994;SDS011;7593;49.006;8.372;2024-01-10T07:18:17;15.50;;;9.60;;
14994;SDS011;7593;49.006;8.372;2024-01-10T07:20:45;15.23;;;9.53;;
14994;SDS011;7593;49.006;8.372;2024-01-10T07:23:12;14.87;;;9.40;;
14994;SDS011;7593;49.006;8.372;2024-01-10T07:25:39;14.47;;;9.43;;
14994;SDS011;7593;49.006;8.372;2024-01-10T07:28:06;14.07;;;8.73;;
14994;SDS011;7593;49.006;8.372;2024-01-10T07:30:32;12.67;;;9.30;;
14994;SDS011;7593;49.006;8.372;2024-01-10T07:32:59;14.13;;;8.90;;
14994;SDS011;7593;49.006;8.372;2024-01-10T07:35:26;13.70;;;9.10;;
14994;SDS011;7593;49.006;8.372;2024-01-10T07:37:55;14.73;;;9.27;;
14994;SDS011;7593;49.006;8.372;2024-01-10T07:40:22;13.50;;;8.80;;
14994;SDS011;7593;49.006;8.372;2024-01-10T07:42:49;13.63;;;9.17;;
14994;SDS011;7593;49.006;8.372;2024-01-10T07:45:16;14.30;;;8.73;;
14994;SDS011;7593;49.006;8.372;2024-01-10T07:47:42;15.10;;;9.40;;
14994;SDS011;7593;49.006;8.372;2024-01-10T07:50:11;14.50;;;9.23;;
14994;SDS011;7593;49.006;8.372;2024-01-10T07:52:39;14.37;;;8.93;;
14994;SDS011;7593;49.006;8.372;2024-01-10T07:55:08;16.23;;;9.30;;
14994;SDS011;7593;49.006;8.372;2024-01-10T07:57:35;11.80;;;8.57;;
14994;SDS011;7593;49.006;8.372;2024-01-10T08:00:03;12.83;;;8.50;;
14994;SDS011;7593;49.006;8.372;2024-01-10T08:02:35;16.20;;;9.90;;
14994;SDS011;7593;49.006;8.372;2024-01-10T08:05:02;14.43;;;9.30;;
14994;SDS011;7593;49.006;8.372;2024-01-10T08:07:30;14.33;;;9.50;;
14994;SDS011;7593;49.006;8.372;2024-01-10T08:09:57;14.97;;;9.80;;
14994;SDS011;7593;49.006;8.372;2024-01-10T08:12:26;13.30;;;9.00;;
14994;SDS011;7593;49.006;8.372;2024-01-10T08:14:53;13.37;;;8.97;;
14994;SDS011;7593;49.006;8.372;2024-01-10T08:17:19;14.97;;;9.93;;
14994;SDS011;7593;49.006;8.372;2024-01-10T08:19:48;14.00;;;9.73;;
14994;SDS011;7593;49.006;8.372;2024-01-10T08:22:15;14.93;;;9.07;;
14994;SDS011;7593;49.006;8.372;2024-01-10T08:24:42;13.87;;;9.33;;
14994;SDS011;7593;49.006;8.372;2024-01-10T08:27:09;13.93;;;9.40;;
14994;SDS011;7593;49.006;8.372;2024-01-10T08:29:37;16.37;;;10.10;;
14994;SDS011;7593;49.006;8.372;2024-01-10T08:32:04;16.03;;;10.70;;
14994;SDS011;7593;49.006;8.372;2024-01-10T08:34:32;14.63;;;9.47;;
14994;SDS011;7593;49.006;8.372;2024-01-10T08:36:58;15.17;;;10.50;;
14994;SDS011;7593;49.006;8.372;2024-01-10T08:39:32;18.10;;;10.03;;
14994;SDS011;7593;49.006;8.372;2024-01-10T08:41:59;17.40;;;10.03;;
14994;SDS011;7593;49.006;8.372;2024-01-10T08:44:29;16.40;;;9.73;;
14994;SDS011;7593;49.006;8.372;2024-01-10T08:47:00;14.87;;;9.17;;
14994;SDS011;7593;49.006;8.372;2024-01-10T08:49:32;12.53;;;9.13;;
14994;SDS011;7593;49.006;8.372;2024-01-10T08:52:02;14.93;;;10.37;;
14994;SDS011;7593;49.006;8.372;2024-01-10T08:54:37;14.43;;;9.40;;
14994;SDS011;7593;49.006;8.372;2024-01-10T08:57:08;13.27;;;9.00;;
14994;SDS011;7593;49.006;8.372;2024-01-10T08:59:36;13.43;;;9.13;;
14994;SDS011;7593;49.006;8.372;2024-01-10T09:02:09;13.97;;;9.60;;
14994;SDS011;7593;49.006;8.372;2024-01-10T09:04:36;14.27;;;9.30;;
14994;SDS011;7593;49.006;8.372;2024-01-10T09:07:06;14.50;;;9.83;;
14994;SDS011;7593;49.006;8.372;2024-01-10T09:09:36;14.10;;;9.37;;
14994;SDS011;7593;49.006;8.372;2024-01-10T09:12:06;15.57;;;9.53;;
14994;SDS011;7593;49.006;8.372;2024-01-10T09:14:33;14.83;;;9.40;;
14994;SDS011;7593;49.006;8.372;2024-01-10T09:17:00;12.63;;;9.43;;
14994;SDS011;7593;49.006;8.372;2024-01-10T09:19:29;13.93;;;9.87;;
14994;SDS011;7593;49.006;8.372;2024-01-10T09:21:56;15.83;;;10.13;;
14994;SDS011;7593;49.006;8.372;2024-01-10T09:24:23;15.37;;;9.40;;
14994;SDS011;7593;49.006;8.372;2024-01-10T09:26:51;14.30;;;9.83;;
14994;SDS011;7593;49.006;8.372;2024-01-10T09:29:18;13.63;;;9.70;;
14994;SDS011;7593;49.006;8.372;2024-01-10T09:31:45;13.87;;;9.90;;
14994;SDS011;7593;49.006;8.372;2024-01-10T09:34:15;12.83;;;9.13;;
14994;SDS011;7593;49.006;8.372;2024-01-10T09:36:43;12.77;;;9.87;;
14994;SDS011;7593;49.006;8.372;2024-01-10T09:39:10;13.37;;;10.30;;
14994;SDS011;7593;49.006;8.372;2024-01-10T09:41:40;16.03;;;9.87;;
14994;SDS011;7593;49.006;8.372;2024-01-10T09:44:12;15.37;;;10.20;;
14994;SDS011;7593;49.006;8.372;2024-01-10T09:46:38;14.77;;;9.73;;
14994;SDS011;7593;49.006;8.372;2024-01-10T09:49:09;18.87;;;10.03;;
14994;SDS011;7593;49.006;8.372;2024-01-10T09:51:36;14.40;;;9.57;;
14994;SDS011;7593;49.006;8.372;2024-01-10T09:54:05;15.73;;;9.67;;
14994;SDS011;7593;49.006;8.372;2024-01-10T09:56:32;14.13;;;10.17;;
14994;SDS011;7593;49.006;8.372;2024-01-10T09:58:59;16.63;;;11.03;;
14994;SDS011;7593;49.006;8.372;2024-01-10T10:01:29;18.43;;;10.10;;
14994;SDS011;7593;49.006;8.372;2024-01-10T10:03:56;14.00;;;9.90;;
14994;SDS011;7593;49.006;8.372;2024-01-10T10:06:24;14.90;;;10.03;;
14994;SDS011;7593;49.006;8.372;2024-01-10T10:08:51;16.13;;;11.23;;
14994;SDS011;7593;49.006;8.372;2024-01-10T10:11:19;20.07;;;10.53;;
14994;SDS011;7593;49.006;8.372;2024-01-10T10:13:46;18.57;;;10.70;;
14994;SDS011;7593;49.006;8.372;2024-01-10T10:16:13;20.33;;;11.93;;
14994;SDS011;7593;49.006;8.372;2024-01-10T10:18:39;17.13;;;10.77;;
14994;SDS011;7593;49.006;8.372;2024-01-10T10:21:08;14.83;;;10.73;;
14994;SDS011;7593;49.006;8.372;2024-01-10T10:23:36;15.83;;;10.77;;
14994;SDS011;7593;49.006;8.372;2024-01-10T10:26:10;15.80;;;11.20;;
14994;SDS011;7593;49.006;8.372;2024-01-10T10:28:40;16.27;;;11.23;;
14994;SDS011;7593;49.006;8.372;2024-01-10T10:31:07;15.70;;;10.70;;
14994;SDS011;7593;49.006;8.372;2024-01-10T10:33:34;13.53;;;10.33;;
14994;SDS011;7593;49.006;8.372;2024-01-10T10:36:02;16.87;;;11.23;;
14994;SDS011;7593;49.006;8.372;2024-01-10T10:38:29;14.63;;;11.00;;
14994;SDS011;7593;49.006;8.372;2024-01-10T10:40:56;16.50;;;11.73;;
14994;SDS011;7593;49.006;8.372;2024-01-10T10:43:25;17.47;;;11.60;;
14994;SDS011;7593;49.006;8.372;2024-01-10T10:45:53;16.50;;;11.57;;
14994;SDS011;7593;49.006;8.372;2024-01-10T10:48:21;16.53;;;11.63;;
14994;SDS011;7593;49.006;8.372;2024-01-10T10:50:50;15.47;;;12.20;;
14994;SDS011;7593;49.006;8.372;2024-01-10T10:53:23;16.70;;;11.83;;
14994;SDS011;7593;49.006;8.372;2024-01-10T10:55:53;17.03;;;12.57;;
14994;SDS011;7593;49.006;8.372;2024-01-10T10:58:21;15.50;;;10.97;;
14994;SDS011;7593;49.006;8.372;2024-01-10T11:00:48;20.57;;;11.67;;
14994;SDS011;7593;49.006;8.372;2024-01-10T11:03:17;15.23;;;11.70;;
14994;SDS011;7593;49.006;8.372;2024-01-10T11:05:45;16.30;;;11.93;;
14994;SDS011;7593;49.006;8.372;2024-01-10T11:08:14;20.20;;;12.40;;
14994;SDS011;7593;49.006;8.372;2024-01-10T11:10:44;21.13;;;12.63;;
14994;SDS011;7593;49.006;8.372;2024-01-10T11:13:26;16.73;;;11.47;;
14994;SDS011;7593;49.006;8.372;2024-01-10T11:19:19;18.23;;;11.30;;
14994;SDS011;7593;49.006;8.372;2024-01-10T11:22:06;15.27;;;11.13;;
14994;SDS011;7593;49.006;8.372;2024-01-10T11:24:44;15.77;;;11.70;;
14994;SDS011;7593;49.006;8.372;2024-01-10T11:27:11;16.20;;;11.57;;
14994;SDS011;7593;49.006;8.372;2024-01-10T11:29:38;18.03;;;12.30;;
14994;SDS011;7593;49.006;8.372;2024-01-10T11:32:06;18.73;;;13.40;;
14994;SDS011;7593;49.006;8.372;2024-01-10T11:34:36;17.50;;;12.83;;
14994;SDS011;7593;49.006;8.372;2024-01-10T11:37:08;17.87;;;13.30;;
14994;SDS011;7593;49.006;8.372;2024-01-10T11:39:36;18.60;;;12.70;;
14994;SDS011;7593;49.006;8.372;2024-01-10T11:42:03;16.63;;;12.13;;
14994;SDS011;7593;49.006;8.372;2024-01-10T11:44:30;17.10;;;12.73;;
14994;SDS011;7593;49.006;8.372;2024-01-10T11:46:58;18.83;;;12.20;;
14994;SDS011;7593;49.006;8.372;2024-01-10T11:49:26;20.57;;;12.80;;
14994;SDS011;7593;49.006;8.372;2024-01-10T11:51:54;17.03;;;12.63;;
14994;SDS011;7593;49.006;8.372;2024-01-10T11:54:38;15.03;;;11.87;;
14994;SDS011;7593;49.006;8.372;2024-01-10T11:57:13;17.73;;;13.10;;
14994;SDS011;7593;49.006;8.372;2024-01-10T11:59:44;16.33;;;12.70;;
14994;SDS011;7593;49.006;8.372;2024-01-10T12:02:11;17.23;;;12.83;;
14994;SDS011;7593;49.006;8.372;2024-01-10T12:04:39;18.40;;;13.57;;
14994;SDS011;7593;49.006;8.372;2024-01-10T12:07:08;20.97;;;13.00;;
14994;SDS011;7593;49.006;8.372;2024-01-10T12:09:35;22.20;;;13.40;;
14994;SDS011;7593;49.006;8.372;2024-01-10T12:12:02;19.30;;;13.20;;
14994;SDS011;7593;49.006;8.372;2024-01-10T12:14:29;16.53;;;12.50;;
14994;SDS011;7593;49.006;8.372;2024-01-10T12:16:56;20.43;;;13.00;;
14994;SDS011;7593;49.006;8.372;2024-01-10T12:19:23;18.83;;;12.33;;
14994;SDS011;7593;49.006;8.372;2024-01-10T12:21:51;17.17;;;12.33;;
14994;SDS011;7593;49.006;8.372;2024-01-10T12:24:19;19.87;;;12.47;;
14994;SDS011;7593;49.006;8.372;2024-01-10T12:26:47;18.67;;;12.37;;
14994;SDS011;7593;49.006;8.372;2024-01-10T12:29:16;17.90;;;12.40;;
14994;SDS011;7593;49.006;8.372;2024-01-10T12:31:45;23.00;;;13.27;;
14994;SDS011;7593;49.006;8.372;2024-01-10T12:34:12;16.43;;;12.37;;
14994;SDS011;7593;49.006;8.372;2024-01-10T12:36:39;18.17;;;13.10;;
14994;SDS011;7593;49.006;8.372;2024-01-10T12:39:06;18.63;;;12.77;;
14994;SDS011;7593;49.006;8.372;2024-01-10T12:41:34;18.60;;;13.53;;
14994;SDS011;7593;49.006;8.372;2024-01-10T12:44:03;17.50;;;12.67;;
14994;SDS011;7593;49.006;8.372;2024-01-10T12:46:31;18.57;;;13.17;;
14994;SDS011;7593;49.006;8.372;2024-01-10T12:48:59;18.00;;;13.20;;
14994;SDS011;7593;49.006;8.372;2024-01-10T12:51:27;20.17;;;13.17;;
14994;SDS011;7593;49.006;8.372;2024-01-10T12:53:55;16.77;;;13.00;;
14994;SDS011;7593;49.006;8.372;2024-01-10T12:56:23;20.70;;;13.37;;
14994;SDS011;7593;49.006;8.372;2024-01-10T12:58:51;18.60;;;12.73;;
14994;SDS011;7593;49.006;8.372;2024-01-10T13:01:18;17.93;;;13.70;;
14994;SDS011;7593;49.006;8.372;2024-01-10T13:03:45;17.57;;;12.47;;
14994;SDS011;7593;49.006;8.372;2024-01-10T13:06:13;19.40;;;13.50;;
14994;SDS011;7593;49.006;8.372;2024-01-10T13:08:40;17.03;;;13.03;;
14994;SDS011;7593;49.006;8.372;2024-01-10T13:11:08;18.73;;;13.33;;
14994;SDS011;7593;49.006;8.372;2024-01-10T13:13:35;20.67;;;13.33;;
14994;SDS011;7593;49.006;8.372;2024-01-10T13:16:03;18.60;;;14.23;;
14994;SDS011;7593;49.006;8.372;2024-01-10T13:18:31;17.93;;;12.57;;
14994;SDS011;7593;49.006;8.372;2024-01-10T13:20:57;16.83;;;12.47;;
14994;SDS011;7593;49.006;8.372;2024-01-10T13:23:24;21.07;;;13.13;;
14994;SDS011;7593;49.006;8.372;2024-01-10T13:25:51;20.13;;;13.00;;
14994;SDS011;7593;49.006;8.372;2024-01-10T13:28:18;23.13;;;12.13;;
14994;SDS011;7593;49.006;8.372;2024-01-10T13:30:44;21.30;;;13.33;;
14994;SDS011;7593;49.006;8.372;2024-01-10T13:33:13;17.40;;;13.17;;
14994;SDS011;7593;49.006;8.372;2024-01-10T13:35:40;18.60;;;12.43;;
14994;SDS011;7593;49.006;8.372;2024-01-10T13:38:06;21.37;;;13.73;;
14994;SDS011;7593;49.006;8.372;2024-01-10T13:40:35;17.90;;;13.20;;
14994;SDS011;7593;49.006;8.372;2024-01-10T13:43:03;18.27;;;12.80;;
14994;SDS011;7593;49.006;8.372;2024-01-10T13:45:30;19.90;;;13.30;;
14994;SDS011;7593;49.006;8.372;2024-01-10T13:47:57;17.23;;;12.87;;
14994;SDS011;7593;49.006;8.372;2024-01-10T13:50:26;18.03;;;13.60;;
14994;SDS011;7593;49.006;8.372;2024-01-10T13:52:55;19.03;;;13.00;;
14994;SDS011;7593;49.006;8.372;2024-01-10T13:55:21;17.60;;;12.73;;
14994;SDS011;7593;49.006;8.372;2024-01-10T13:57:49;17.80;;;13.57;;
14994;SDS011;7593;49.006;8.372;2024-01-10T14:00:16;18.80;;;13.57;;
14994;SDS011;7593;49.006;8.372;2024-01-10T14:02:45;16.53;;;12.50;;
14994;SDS011;7593;49.006;8.372;2024-01-10T14:05:12;18.17;;;12.87;;
14994;SDS011;7593;49.006;8.372;2024-01-10T14:07:40;20.03;;;13.47;;
14994;SDS011;7593;49.006;8.372;2024-01-10T14:10:09;19.03;;;13.97;;
14994;SDS011;7593;49.006;8.372;2024-01-10T14:12:36;18.13;;;12.93;;
14994;SDS011;7593;49.006;8.372;2024-01-10T14:15:03;18.07;;;13.07;;
14994;SDS011;7593;49.006;8.372;2024-01-10T14:17:30;18.17;;;12.77;;
14994;SDS011;7593;49.006;8.372;2024-01-10T14:19:57;17.50;;;12.50;;
14994;SDS011;7593;49.006;8.372;2024-01-10T14:22:24;17.83;;;12.93;;
14994;SDS011;7593;49.006;8.372;2024-01-10T14:24:52;20.37;;;13.63;;
14994;SDS011;7593;49.006;8.372;2024-01-10T14:27:20;21.50;;;13.30;;
14994;SDS011;7593;49.006;8.372;2024-01-10T14:29:47;18.67;;;12.97;;
14994;SDS011;7593;49.006;8.372;2024-01-10T14:32:13;18.90;;;12.97;;
14994;SDS011;7593;49.006;8.372;2024-01-10T14:34:40;18.53;;;12.63;;
14994;SDS011;7593;49.006;8.372;2024-01-10T14:37:07;19.13;;;13.83;;
14994;SDS011;7593;49.006;8.372;2024-01-10T14:39:34;17.70;;;13.23;;
14994;SDS011;7593;49.006;8.372;2024-01-10T14:42:05;16.30;;;11.97;;
14994;SDS011;7593;49.006;8.372;2024-01-10T14:44:34;19.50;;;13.20;;
14994;SDS011;7593;49.006;8.372;2024-01-10T14:47:00;19.40;;;13.33;;
14994;SDS011;7593;49.006;8.372;2024-01-10T14:49:28;17.23;;;13.00;;
14994;SDS011;7593;49.006;8.372;2024-01-10T14:51:55;18.57;;;13.87;;
14994;SDS011;7593;49.006;8.372;2024-01-10T14:54:22;18.53;;;13.10;;
14994;SDS011;7593;49.006;8.372;2024-01-10T14:56:49;20.00;;;13.63;;